Tulsa, Oklahoma
Current Conditions -  °F | °C
As of 5:53 PM on Tuesday 25 Nov 2014 (Local Time) from KTUL Reporting Station
Broken Clouds Broken Clouds  
Wind Chill: 42°   Ceiling: 25000
Heat Index: 45°   Visibility: 10mi
Dew Point: 21°   Wind: 6mph
Humidity: 39%   Direction: 160°SSE
Pressure: 30.12"   Gusts: NA
Location:  36.15°N, 95.99°W
Report Text: KTUL 252353Z 16005KT 10SM BKN250 07/M06 A3012 RMK AO2 SLP201 T00721061 10106 20061 56013
Loading
Personal Weather Stations






























Interactive Weather Map New forecast layout! Learn more

10-Day Weather Forecast

Advertisements
Track Severe Weather on mobile